Time;durP1;ratioP1;P1;durP2;ratioP2;P2;SDS_P1;SDS_P2;PMS_P1;PMS_P2;Temp;Humidity;BMP_temperature;BMP_pressure;BME280_temperature;BME280_humidity;BME280_pressure;Samples;Min_cycle;Max_cycle;Signal;HPM_P1;HPM_P2
2022/12/20 07:45:39;;;;;;;68.35;25.00;;;;;;;;;;4940316;28;20058;-87
2022/12/20 07:48:08;;;;;;;76.93;27.52;;;;;;;;;;4941795;29;20071;-88
2022/12/20 07:59:00;;;;;;;61.53;24.75;;;;;;;;;;4960494;29;20464;-89
2022/12/20 08:09:57;;;;;;;51.22;22.10;;;;;;;;;;5011360;23;20051;-86
2022/12/20 08:12:24;;;;;;;46.15;21.63;;;;;;;;;;4960433;29;20047;-86
2022/12/20 08:14:54;;;;;;;51.28;22.52;;;;;;;;;;4943507;29;20103;-86
2022/12/20 08:17:22;;;;;;;51.25;23.23;;;;;;;;;;4960094;29;20031;-86
2022/12/20 08:22:34;;;;;;;41.28;20.95;;;;;;;;;;4957841;29;20326;-87
2022/12/20 08:25:01;;;;;;;45.72;22.23;;;;;;;;;;4940978;29;20038;-86
2022/12/20 08:38:28;;;;;;;40.47;20.05;;;;;;;;;;4922387;29;20046;-86
2022/12/20 08:40:54;;;;;;;41.90;19.85;;;;;;;;;;4921998;29;20016;-85
2022/12/20 10:47:58;;;;;;;42.95;18.27;;;;;;;;;;4350143;23;20051;-79
2022/12/20 10:50:24;;;;;;;52.45;21.58;;;;;;;;;;4925473;29;20028;-80
2022/12/20 10:53:10;;;;;;;42.97;19.40;;;;;;;;;;4940517;29;20035;-81
2022/12/20 10:55:40;;;;;;;35.20;19.05;;;;;;;;;;4918481;29;20079;-79
2022/12/20 10:58:16;;;;;;;32.38;18.35;;;;;;;;;;4934092;29;20024;-79
2022/12/20 11:00:43;;;;;;;39.83;19.70;;;;;;;;;;4934290;29;20024;-79
2022/12/20 11:03:15;;;;;;;36.83;18.15;;;;;;;;;;4911908;29;20036;-79
2022/12/20 11:05:52;;;;;;;33.95;18.50;;;;;;;;;;4936304;29;20111;-80
2022/12/20 11:08:18;;;;;;;42.42;19.90;;;;;;;;;;4925673;29;20114;-78
2022/12/20 11:10:45;;;;;;;35.47;18.48;;;;;;;;;;4933277;29;20312;-79
2022/12/20 11:13:22;;;;;;;35.17;17.85;;;;;;;;;;4922906;29;20028;-78
2022/12/20 11:15:49;;;;;;;37.85;17.65;;;;;;;;;;4937077;29;20031;-79
2022/12/20 11:18:22;;;;;;;39.88;17.60;;;;;;;;;;4928101;29;20033;-78
2022/12/20 11:20:52;;;;;;;47.55;20.98;;;;;;;;;;4914900;29;20175;-78
2022/12/20 11:23:18;;;;;;;39.80;18.50;;;;;;;;;;4930998;29;20035;-78
2022/12/20 11:25:47;;;;;;;37.42;18.25;;;;;;;;;;4924674;29;20036;-78
2022/12/20 11:28:31;;;;;;;35.63;18.30;;;;;;;;;;4936171;29;20031;-79
2022/12/20 11:31:03;;;;;;;34.08;16.75;;;;;;;;;;4941481;29;20037;-79
2022/12/20 11:33:39;;;;;;;32.92;16.67;;;;;;;;;;4938583;29;20047;-78
2022/12/20 11:36:23;;;;;;;39.85;18.38;;;;;;;;;;4905418;29;20044;-77
2022/12/20 12:00:16;;;;;;;;;;;;;;;;;;4966053;23;20068;-87
2022/12/20 12:12:24;;;;;;;48.88;21.88;;;;;;;;;;4960487;29;20042;-84
2022/12/20 12:15:11;;;;;;;44.42;18.92;;;;;;;;;;4937071;29;20047;-85
2022/12/20 12:17:56;;;;;;;33.30;17.45;;;;;;;;;;4941941;29;20074;-84
2022/12/20 12:20:43;;;;;;;45.03;20.80;;;;;;;;;;4947858;29;20031;-85
2022/12/20 12:23:34;;;;;;;38.38;17.95;;;;;;;;;;4940701;29;20035;-82
2022/12/20 12:26:02;;;;;;;39.20;20.48;;;;;;;;;;4945884;29;20034;-81
2022/12/20 12:28:28;;;;;;;62.20;21.60;;;;;;;;;;4940354;29;20075;-85
2022/12/20 12:30:56;;;;;;;41.50;19.05;;;;;;;;;;4952680;29;20030;-87
2022/12/20 12:33:29;;;;;;;57.97;20.45;;;;;;;;;;4930456;29;20035;-86
2022/12/20 12:35:58;;;;;;;43.50;19.10;;;;;;;;;;4943081;29;20335;-86
2022/12/20 12:38:24;;;;;;;40.75;20.27;;;;;;;;;;4942074;29;20035;-87
2022/12/20 12:41:25;;;;;;;45.97;22.88;;;;;;;;;;4908704;29;20419;-86
2022/12/20 12:43:53;;;;;;;49.47;23.63;;;;;;;;;;4930796;29;20025;-85
2022/12/20 12:46:24;;;;;;;43.75;22.70;;;;;;;;;;4940880;29;20032;-86
2022/12/20 12:48:51;;;;;;;43.13;20.70;;;;;;;;;;4909727;29;20028;-86
2022/12/20 12:51:22;;;;;;;46.70;22.42;;;;;;;;;;4939614;29;20087;-87
2022/12/20 12:53:49;;;;;;;49.07;22.90;;;;;;;;;;4939065;29;20450;-84
2022/12/20 12:56:25;;;;;;;40.67;21.40;;;;;;;;;;4928623;29;20040;-86
2022/12/20 12:59:19;;;;;;;44.55;22.48;;;;;;;;;;4925710;29;20040;-86
2022/12/20 13:01:45;;;;;;;44.30;21.50;;;;;;;;;;4922013;29;20749;-86
2022/12/20 13:04:22;;;;;;;59.30;21.73;;;;;;;;;;4921509;29;20059;-86
2022/12/20 13:06:48;;;;;;;46.30;23.92;;;;;;;;;;4919947;29;20358;-86
2022/12/20 13:09:27;;;;;;;46.75;23.25;;;;;;;;;;4922169;29;20032;-86
2022/12/20 13:11:54;;;;;;;60.80;25.85;;;;;;;;;;4923216;29;20020;-86
2022/12/20 13:14:23;;;;;;;52.00;25.25;;;;;;;;;;4920477;29;20028;-85
2022/12/20 13:17:01;;;;;;;55.35;27.05;;;;;;;;;;4920963;29;20036;-85
2022/12/20 13:19:27;;;;;;;39.92;21.70;;;;;;;;;;4920093;29;20028;-86
2022/12/20 13:21:56;;;;;;;43.08;21.63;;;;;;;;;;4934573;29;20437;-85
2022/12/20 13:24:36;;;;;;;60.75;24.30;;;;;;;;;;4940231;29;20421;-86
2022/12/20 13:27:03;;;;;;;48.53;22.00;;;;;;;;;;4940173;29;20031;-85
2022/12/20 13:29:34;;;;;;;40.00;19.73;;;;;;;;;;4937829;29;20059;-85
2022/12/20 13:32:00;;;;;;;36.67;19.08;;;;;;;;;;4938692;29;20047;-85
2022/12/20 13:34:37;;;;;;;38.17;18.48;;;;;;;;;;4940117;29;20035;-85
2022/12/20 13:37:03;;;;;;;44.53;22.27;;;;;;;;;;4916217;29;20075;-85
2022/12/20 13:39:35;;;;;;;37.22;18.52;;;;;;;;;;4936753;29;20449;-85
2022/12/20 13:42:27;;;;;;;39.85;20.92;;;;;;;;;;4916449;29;20028;-85
2022/12/20 13:44:54;;;;;;;35.85;19.42;;;;;;;;;;4918351;29;20028;-85
2022/12/20 13:47:29;;;;;;;33.88;17.52;;;;;;;;;;4926502;29;20032;-87
2022/12/20 13:49:59;;;;;;;34.10;19.10;;;;;;;;;;4940346;29;20126;-85
2022/12/20 13:52:30;;;;;;;35.42;19.63;;;;;;;;;;4934652;29;20034;-84
2022/12/20 13:54:59;;;;;;;34.00;18.10;;;;;;;;;;4926390;29;20039;-86
2022/12/20 13:57:51;;;;;;;31.60;17.50;;;;;;;;;;4920766;29;20032;-85
2022/12/20 14:00:18;;;;;;;33.33;18.10;;;;;;;;;;4919707;29;20032;-85
2022/12/20 14:02:44;;;;;;;34.92;19.30;;;;;;;;;;4921074;29;20025;-85
2022/12/20 14:05:13;;;;;;;38.15;21.13;;;;;;;;;;4920631;29;20127;-85
2022/12/20 14:07:43;;;;;;;36.55;19.30;;;;;;;;;;4921168;29;20109;-86
2022/12/20 14:10:17;;;;;;;39.72;19.50;;;;;;;;;;4920541;29;20063;-85
2022/12/20 14:15:46;;;;;;;54.10;27.08;;;;;;;;;;4922002;29;20034;-85
2022/12/20 14:18:17;;;;;;;50.80;24.55;;;;;;;;;;4919725;29;20044;-84
2022/12/20 14:20:43;;;;;;;60.40;27.95;;;;;;;;;;4920692;29;20032;-84
2022/12/20 14:23:12;;;;;;;118.72;41.80;;;;;;;;;;4920591;29;20024;-84
2022/12/20 14:25:43;;;;;;;140.73;49.10;;;;;;;;;;4929028;29;20023;-85
2022/12/20 14:28:27;;;;;;;139.30;47.75;;;;;;;;;;4917286;29;20412;-84
2022/12/20 14:30:55;;;;;;;73.72;30.15;;;;;;;;;;4916834;29;20042;-84
2022/12/20 14:33:36;;;;;;;46.08;23.13;;;;;;;;;;4923826;29;20028;-84
2022/12/20 14:36:19;;;;;;;64.20;28.58;;;;;;;;;;4906794;29;20063;-86
2022/12/20 14:38:46;;;;;;;71.20;29.42;;;;;;;;;;4923929;29;20027;-84
2022/12/20 14:41:31;;;;;;;79.95;35.42;;;;;;;;;;4923726;29;20050;-84
2022/12/20 14:43:59;;;;;;;99.55;38.15;;;;;;;;;;4923381;29;20028;-85
2022/12/20 14:46:25;;;;;;;99.78;38.78;;;;;;;;;;4923806;29;20035;-85
2022/12/20 14:49:10;;;;;;;77.13;35.08;;;;;;;;;;4907018;29;20040;-86
2022/12/20 14:51:36;;;;;;;123.47;48.85;;;;;;;;;;4923791;29;20083;-85
2022/12/20 14:54:03;;;;;;;117.15;47.30;;;;;;;;;;4907046;29;20028;-85
2022/12/20 14:56:29;;;;;;;227.77;78.70;;;;;;;;;;4923725;29;20032;-87
2022/12/20 14:59:25;;;;;;;162.43;62.42;;;;;;;;;;4923610;29;20024;-85
2022/12/20 15:01:51;;;;;;;133.90;55.53;;;;;;;;;;4827034;29;20050;-85
2022/12/20 15:04:20;;;;;;;138.32;55.88;;;;;;;;;;4807809;29;20043;-85
2022/12/20 15:06:49;;;;;;;95.82;43.25;;;;;;;;;;4810142;29;20051;-85
2022/12/20 15:09:16;;;;;;;106.55;50.05;;;;;;;;;;4810855;29;20035;-84
2022/12/20 15:11:44;;;;;;;292.65;121.35;;;;;;;;;;4811055;29;20042;-86
2022/12/20 15:14:27;;;;;;;186.90;89.32;;;;;;;;;;4810734;29;20038;-84
2022/12/20 15:16:53;;;;;;;176.32;80.30;;;;;;;;;;4810659;29;20039;-84
2022/12/20 15:19:19;;;;;;;165.82;79.70;;;;;;;;;;4810385;29;20039;-86
2022/12/20 15:21:45;;;;;;;446.88;207.00;;;;;;;;;;4810274;29;20035;-84
2022/12/20 15:24:17;;;;;;;302.27;148.98;;;;;;;;;;4810437;29;20027;-84
2022/12/20 15:26:43;;;;;;;360.52;103.35;;;;;;;;;;4810394;29;20035;-84
2022/12/20 15:29:19;;;;;;;361.83;93.40;;;;;;;;;;4810271;29;20354;-84
2022/12/20 15:31:46;;;;;;;352.77;89.30;;;;;;;;;;4810425;29;20035;-82
2022/12/20 15:34:21;;;;;;;334.50;84.22;;;;;;;;;;4810258;29;20055;-85
2022/12/20 15:36:47;;;;;;;332.73;80.32;;;;;;;;;;4810165;29;20104;-84
2022/12/20 15:39:13;;;;;;;294.38;74.03;;;;;;;;;;4896227;29;20076;-84
2022/12/20 15:44:43;;;;;;;227.57;60.85;;;;;;;;;;4904026;29;20124;-84
2022/12/20 15:47:12;;;;;;;223.70;58.97;;;;;;;;;;4903685;29;20056;-84
2022/12/20 15:49:38;;;;;;;230.77;58.92;;;;;;;;;;4903687;29;20085;-84
2022/12/20 15:52:04;;;;;;;273.15;61.42;;;;;;;;;;4886835;29;20041;-84
2022/12/20 15:54:35;;;;;;;287.73;60.60;;;;;;;;;;4903338;29;20032;-84
2022/12/20 15:57:02;;;;;;;266.92;54.72;;;;;;;;;;4903500;29;20035;-84
2022/12/20 15:59:29;;;;;;;255.05;54.58;;;;;;;;;;4905065;29;20105;-85
2022/12/20 16:01:55;;;;;;;237.90;52.00;;;;;;;;;;4887126;29;20498;-86
2022/12/20 16:04:21;;;;;;;279.95;57.03;;;;;;;;;;4892419;29;20071;-84
2022/12/20 16:06:48;;;;;;;240.43;54.00;;;;;;;;;;4905793;29;20058;-84
2022/12/20 16:09:15;;;;;;;222.90;52.50;;;;;;;;;;4922034;29;20032;-85
2022/12/20 16:11:41;;;;;;;213.55;50.20;;;;;;;;;;4922221;29;20028;-84
2022/12/20 16:14:13;;;;;;;170.80;40.28;;;;;;;;;;4922185;29;20353;-84
2022/12/20 16:16:39;;;;;;;148.90;34.28;;;;;;;;;;4922130;29;20028;-85
2022/12/20 16:19:05;;;;;;;134.80;34.42;;;;;;;;;;4905170;29;20301;-84
2022/12/20 16:21:35;;;;;;;124.25;35.25;;;;;;;;;;4922297;29;20020;-85
2022/12/20 16:24:02;;;;;;;119.20;37.33;;;;;;;;;;4922018;29;20025;-85
2022/12/20 16:26:28;;;;;;;100.35;31.60;;;;;;;;;;4921891;29;20028;-84
2022/12/20 16:28:55;;;;;;;91.85;32.78;;;;;;;;;;4921879;29;20442;-85
2022/12/20 16:31:27;;;;;;;84.45;29.63;;;;;;;;;;4922986;29;20111;-85
2022/12/20 16:33:54;;;;;;;76.53;30.83;;;;;;;;;;4905532;29;20079;-84
2022/12/20 16:36:20;;;;;;;70.70;26.20;;;;;;;;;;4905217;29;20067;-84
2022/12/20 16:38:47;;;;;;;59.88;24.75;;;;;;;;;;4921684;29;20027;-85
2022/12/20 16:41:13;;;;;;;56.00;23.23;;;;;;;;;;4921731;29;20028;-85
2022/12/20 16:43:40;;;;;;;53.45;21.20;;;;;;;;;;4921700;29;20028;-85
2022/12/20 16:46:06;;;;;;;53.53;22.73;;;;;;;;;;4921704;29;20099;-85
2022/12/20 16:48:33;;;;;;;51.53;23.23;;;;;;;;;;4922476;29;20073;-85
2022/12/20 16:50:59;;;;;;;47.35;22.73;;;;;;;;;;4920857;29;20040;-85
2022/12/20 16:53:25;;;;;;;57.00;24.30;;;;;;;;;;4921688;29;20024;-84
2022/12/20 16:55:51;;;;;;;64.15;24.13;;;;;;;;;;4921524;29;20429;-85
2022/12/20 16:58:50;;;;;;;57.47;22.80;;;;;;;;;;4904683;29;20407;-82
2022/12/20 17:01:17;;;;;;;67.85;25.23;;;;;;;;;;4920318;29;20427;-86
2022/12/20 17:03:45;;;;;;;56.97;21.48;;;;;;;;;;4921438;29;20107;-85
2022/12/20 17:06:12;;;;;;;52.83;22.02;;;;;;;;;;4921529;29;20024;-85
2022/12/20 17:08:38;;;;;;;64.82;23.55;;;;;;;;;;4904504;29;20059;-86
2022/12/20 17:11:18;;;;;;;69.72;22.80;;;;;;;;;;4921866;29;20035;-86
2022/12/20 17:13:45;;;;;;;78.18;32.42;;;;;;;;;;4922019;29;20032;-85
2022/12/20 17:16:11;;;;;;;71.72;31.77;;;;;;;;;;4920902;29;20127;-86
2022/12/20 17:18:38;;;;;;;72.32;33.50;;;;;;;;;;4903996;29;20024;-84
2022/12/20 17:21:11;;;;;;;75.28;30.70;;;;;;;;;;4920873;29;20407;-85
2022/12/20 17:23:37;;;;;;;63.70;28.33;;;;;;;;;;4920939;29;20076;-85
2022/12/20 17:26:03;;;;;;;59.63;24.38;;;;;;;;;;4921311;29;20058;-84
2022/12/20 17:28:29;;;;;;;60.05;24.00;;;;;;;;;;4921257;29;20029;-86
2022/12/20 17:30:55;;;;;;;59.85;26.73;;;;;;;;;;4921185;29;20052;-85
2022/12/20 17:33:21;;;;;;;69.20;26.90;;;;;;;;;;4921291;29;20051;-85
2022/12/20 17:35:47;;;;;;;51.55;23.33;;;;;;;;;;4904660;29;20122;-85
2022/12/20 17:38:14;;;;;;;53.53;24.13;;;;;;;;;;4921038;29;20071;-86
2022/12/20 17:40:40;;;;;;;54.97;24.27;;;;;;;;;;4921234;29;20035;-86
2022/12/20 17:43:10;;;;;;;50.50;23.48;;;;;;;;;;4921015;29;20020;-86
2022/12/20 17:45:37;;;;;;;52.63;23.98;;;;;;;;;;4909217;29;20450;-85
2022/12/20 17:48:03;;;;;;;53.03;23.60;;;;;;;;;;4904020;29;20040;-84
2022/12/20 17:50:29;;;;;;;66.25;27.25;;;;;;;;;;4920983;29;20068;-85
2022/12/20 17:52:56;;;;;;;74.40;29.15;;;;;;;;;;4904238;29;20060;-85
2022/12/20 17:55:23;;;;;;;77.95;27.45;;;;;;;;;;4904197;29;20024;-85
2022/12/20 17:57:50;;;;;;;69.10;25.65;;;;;;;;;;4903934;29;20032;-85
2022/12/20 18:00:18;;;;;;;58.60;24.27;;;;;;;;;;4903355;29;20054;-85
2022/12/20 18:02:44;;;;;;;52.25;24.77;;;;;;;;;;4923522;29;20067;-86
2022/12/20 18:05:11;;;;;;;59.83;23.55;;;;;;;;;;4924292;29;20044;-85
2022/12/20 18:07:38;;;;;;;64.70;26.27;;;;;;;;;;4907251;29;20035;-79
2022/12/20 18:10:04;;;;;;;56.42;24.77;;;;;;;;;;4924091;29;20337;-76
2022/12/20 18:12:30;;;;;;;60.88;27.10;;;;;;;;;;4923854;29;20036;-76
2022/12/20 18:14:56;;;;;;;57.22;24.00;;;;;;;;;;4907147;29;20490;-77
2022/12/20 18:17:22;;;;;;;88.25;35.50;;;;;;;;;;4906933;29;20351;-77
2022/12/20 18:19:48;;;;;;;65.20;27.38;;;;;;;;;;4906992;29;20024;-78
2022/12/20 18:22:14;;;;;;;63.50;26.52;;;;;;;;;;4923738;29;20028;-77
2022/12/20 18:24:40;;;;;;;62.90;25.08;;;;;;;;;;4923912;29;20021;-77
2022/12/20 18:27:06;;;;;;;64.20;26.13;;;;;;;;;;4924033;29;20101;-77
2022/12/20 18:29:32;;;;;;;42.22;21.55;;;;;;;;;;4923633;29;20115;-77
2022/12/20 18:31:58;;;;;;;51.88;23.08;;;;;;;;;;4923639;29;20084;-77
2022/12/20 18:34:24;;;;;;;41.85;20.75;;;;;;;;;;4923664;29;20075;-77
2022/12/20 18:36:51;;;;;;;43.10;20.02;;;;;;;;;;4923278;29;20107;-77
2022/12/20 18:39:17;;;;;;;53.65;22.42;;;;;;;;;;4923759;29;20099;-78
2022/12/20 18:41:43;;;;;;;48.75;23.60;;;;;;;;;;4923496;29;20315;-77
2022/12/20 18:44:10;;;;;;;45.63;22.67;;;;;;;;;;4923443;29;20028;-77
2022/12/20 18:46:36;;;;;;;51.55;22.35;;;;;;;;;;4923343;29;20427;-77
2022/12/20 18:49:02;;;;;;;44.35;22.55;;;;;;;;;;4923402;29;20039;-77
2022/12/20 18:51:30;;;;;;;39.95;19.52;;;;;;;;;;4923240;29;20422;-78
2022/12/20 18:53:57;;;;;;;48.75;22.27;;;;;;;;;;4923082;29;20070;-77
2022/12/20 18:56:24;;;;;;;52.45;19.73;;;;;;;;;;4923086;29;20024;-77
2022/12/20 18:58:50;;;;;;;42.42;20.63;;;;;;;;;;4906350;29;20035;-78
2022/12/20 19:01:17;;;;;;;36.30;17.67;;;;;;;;;;4906238;29;20168;-78
2022/12/20 19:03:43;;;;;;;47.80;22.65;;;;;;;;;;4906254;29;20040;-76
2022/12/20 19:06:10;;;;;;;44.63;18.58;;;;;;;;;;4923002;29;20114;-78
2022/12/20 19:08:36;;;;;;;49.10;20.42;;;;;;;;;;4923008;29;20099;-78
2022/12/20 19:11:11;;;;;;;41.95;18.98;;;;;;;;;;4906156;29;20167;-77
2022/12/20 19:13:37;;;;;;;49.97;19.27;;;;;;;;;;4905208;29;20028;-79
2022/12/20 19:16:07;;;;;;;50.50;21.45;;;;;;;;;;4922625;29;20127;-78
2022/12/20 19:18:34;;;;;;;56.95;23.02;;;;;;;;;;4922846;29;20431;-77
2022/12/20 19:21:05;;;;;;;40.88;18.85;;;;;;;;;;4906089;29;20036;-77
2022/12/20 19:23:31;;;;;;;44.22;19.00;;;;;;;;;;4905937;29;20026;-77
2022/12/20 19:26:00;;;;;;;54.00;23.42;;;;;;;;;;4922664;29;20020;-77
2022/12/20 19:28:27;;;;;;;45.72;18.52;;;;;;;;;;4905840;29;20020;-76
2022/12/20 19:30:54;;;;;;;49.97;16.40;;;;;;;;;;4922527;29;20024;-78
2022/12/20 19:33:20;;;;;;;47.40;16.63;;;;;;;;;;4905330;29;20035;-77
2022/12/20 19:35:46;;;;;;;54.65;19.20;;;;;;;;;;4922316;29;20027;-77
2022/12/20 19:38:12;;;;;;;42.78;16.55;;;;;;;;;;4922371;29;20107;-77
2022/12/20 19:40:39;;;;;;;48.38;18.27;;;;;;;;;;4905357;29;20067;-77
2022/12/20 19:43:05;;;;;;;38.55;15.68;;;;;;;;;;4922428;29;20040;-78
2022/12/20 19:45:31;;;;;;;45.85;17.00;;;;;;;;;;4905261;29;20024;-77
2022/12/20 19:47:57;;;;;;;56.17;19.00;;;;;;;;;;4922390;29;20047;-77
2022/12/20 19:50:23;;;;;;;64.10;18.95;;;;;;;;;;4922150;29;20032;-77
2022/12/20 19:52:51;;;;;;;77.50;22.05;;;;;;;;;;4922196;29;20034;-77
2022/12/20 19:55:17;;;;;;;82.07;25.23;;;;;;;;;;4922093;29;20035;-77
2022/12/20 19:57:43;;;;;;;93.00;29.42;;;;;;;;;;4921980;29;20376;-77
2022/12/20 20:00:09;;;;;;;75.85;23.92;;;;;;;;;;4905272;29;20060;-78
2022/12/20 20:02:35;;;;;;;50.45;20.25;;;;;;;;;;4922140;29;20415;-78
2022/12/20 20:05:01;;;;;;;55.42;22.20;;;;;;;;;;4921426;29;20044;-77
2022/12/20 20:07:27;;;;;;;45.25;20.08;;;;;;;;;;4921952;29;20072;-78
2022/12/20 20:09:53;;;;;;;55.85;23.95;;;;;;;;;;4905098;29;20158;-77
2022/12/20 20:12:19;;;;;;;43.63;19.25;;;;;;;;;;4921962;29;20103;-78
2022/12/20 20:14:46;;;;;;;47.53;18.92;;;;;;;;;;4921810;29;20302;-76
2022/12/20 20:17:12;;;;;;;58.25;23.23;;;;;;;;;;4921715;29;20040;-77
2022/12/20 20:19:39;;;;;;;53.58;21.77;;;;;;;;;;4921782;29;20032;-77
2022/12/20 20:22:06;;;;;;;53.15;23.63;;;;;;;;;;4904804;29;20071;-78
2022/12/20 20:24:32;;;;;;;55.85;23.38;;;;;;;;;;4921625;29;20024;-77
2022/12/20 20:26:58;;;;;;;47.65;22.85;;;;;;;;;;4921537;29;20475;-77
2022/12/20 20:29:24;;;;;;;38.65;19.38;;;;;;;;;;4921803;29;20050;-78
2022/12/20 20:31:50;;;;;;;38.50;18.00;;;;;;;;;;4921693;29;20107;-78
2022/12/20 20:34:16;;;;;;;72.70;33.38;;;;;;;;;;4904707;29;20036;-79
2022/12/20 20:36:42;;;;;;;60.30;28.80;;;;;;;;;;4921289;29;20047;-77
2022/12/20 20:39:08;;;;;;;54.35;23.88;;;;;;;;;;4921402;29;20036;-77
2022/12/20 20:41:34;;;;;;;43.63;22.80;;;;;;;;;;4904402;29;20028;-78
2022/12/20 20:44:00;;;;;;;40.15;19.10;;;;;;;;;;4904505;29;20020;-77
2022/12/20 20:46:27;;;;;;;35.95;17.95;;;;;;;;;;4921256;29;20409;-77
2022/12/20 20:48:53;;;;;;;42.60;20.05;;;;;;;;;;4921267;29;20039;-78
2022/12/20 20:51:19;;;;;;;38.95;19.50;;;;;;;;;;4904337;29;20039;-77
2022/12/20 20:53:45;;;;;;;37.58;18.48;;;;;;;;;;4921188;29;20080;-77
2022/12/20 20:56:11;;;;;;;32.55;16.80;;;;;;;;;;4920980;29;20036;-77
2022/12/20 20:58:38;;;;;;;43.30;23.92;;;;;;;;;;4904158;29;20036;-77
2022/12/20 21:01:07;;;;;;;42.58;22.25;;;;;;;;;;4921131;29;20031;-77
2022/12/20 21:03:33;;;;;;;35.38;18.27;;;;;;;;;;4904263;29;20024;-77
2022/12/20 21:05:59;;;;;;;34.65;17.52;;;;;;;;;;4903804;29;20047;-76
2022/12/20 21:08:25;;;;;;;43.65;20.48;;;;;;;;;;4921043;29;20028;-78
2022/12/20 21:10:51;;;;;;;56.75;27.75;;;;;;;;;;4920286;29;20039;-77
2022/12/20 21:13:17;;;;;;;61.58;24.40;;;;;;;;;;4921014;29;20028;-77
2022/12/20 21:15:45;;;;;;;84.90;24.17;;;;;;;;;;4920492;29;20051;-76
2022/12/20 21:18:11;;;;;;;82.10;26.00;;;;;;;;;;4920879;29;20042;-78
2022/12/20 21:20:37;;;;;;;109.78;30.75;;;;;;;;;;4903979;29;20475;-77
2022/12/20 21:23:04;;;;;;;79.60;27.55;;;;;;;;;;4920989;29;20092;-77
2022/12/20 21:25:30;;;;;;;72.57;28.58;;;;;;;;;;4920755;29;20115;-79
2022/12/20 21:27:57;;;;;;;60.88;23.88;;;;;;;;;;4920622;29;20056;-78
2022/12/20 21:30:23;;;;;;;97.75;27.98;;;;;;;;;;4903974;29;20024;-76
2022/12/20 21:32:50;;;;;;;101.40;30.50;;;;;;;;;;4903799;29;20034;-77
2022/12/20 21:35:16;;;;;;;105.63;31.42;;;;;;;;;;4920690;29;20053;-77
2022/12/20 21:37:42;;;;;;;101.80;32.15;;;;;;;;;;4906428;29;20032;-77
2022/12/20 21:40:08;;;;;;;107.10;31.50;;;;;;;;;;4924680;29;20063;-78
2022/12/20 21:42:34;;;;;;;79.50;30.42;;;;;;;;;;4907182;29;20438;-78
2022/12/20 21:45:00;;;;;;;86.25;33.97;;;;;;;;;;4924699;29;20434;-78
2022/12/20 21:47:26;;;;;;;86.05;33.55;;;;;;;;;;4907182;29;20087;-78
2022/12/20 21:49:52;;;;;;;96.43;30.00;;;;;;;;;;4907582;29;20470;-77
2022/12/20 21:52:18;;;;;;;105.00;34.42;;;;;;;;;;4907370;29;20048;-76
2022/12/20 21:54:44;;;;;;;96.03;34.10;;;;;;;;;;4924544;29;20039;-77
2022/12/20 21:57:11;;;;;;;112.35;35.15;;;;;;;;;;4924238;29;20043;-77
2022/12/20 21:59:37;;;;;;;104.68;32.05;;;;;;;;;;4924162;29;20024;-78
2022/12/20 22:02:04;;;;;;;94.82;29.65;;;;;;;;;;4924238;29;20027;-77
2022/12/20 22:04:30;;;;;;;92.30;35.33;;;;;;;;;;4923953;29;20036;-79
2022/12/20 22:06:56;;;;;;;68.97;30.00;;;;;;;;;;4923802;29;20032;-77
2022/12/20 22:09:22;;;;;;;86.65;29.02;;;;;;;;;;4924064;29;20028;-77
2022/12/20 22:11:49;;;;;;;93.82;30.85;;;;;;;;;;4924200;29;20084;-78
2022/12/20 22:14:15;;;;;;;95.03;31.27;;;;;;;;;;4924037;29;20471;-77
2022/12/20 22:16:41;;;;;;;105.95;35.28;;;;;;;;;;4923941;29;20036;-77
2022/12/20 22:19:07;;;;;;;114.55;34.58;;;;;;;;;;4923995;29;20024;-77
2022/12/20 22:21:35;;;;;;;102.60;35.40;;;;;;;;;;4907123;29;20091;-77
2022/12/20 22:24:02;;;;;;;109.57;36.97;;;;;;;;;;4923714;29;20028;-78
2022/12/20 22:26:29;;;;;;;97.05;36.05;;;;;;;;;;4907046;29;20068;-77
2022/12/20 22:28:57;;;;;;;60.80;29.13;;;;;;;;;;4906842;29;20036;-78
2022/12/20 22:31:24;;;;;;;50.80;24.38;;;;;;;;;;4907011;29;20063;-79
2022/12/20 22:33:51;;;;;;;64.22;24.70;;;;;;;;;;4923669;29;20040;-77
2022/12/20 22:36:17;;;;;;;73.55;28.60;;;;;;;;;;4906642;29;20024;-76
2022/12/20 22:38:44;;;;;;;61.70;24.48;;;;;;;;;;4906764;29;20356;-77
2022/12/20 22:41:14;;;;;;;43.20;18.50;;;;;;;;;;4923598;29;20032;-77
2022/12/20 22:43:41;;;;;;;40.03;18.85;;;;;;;;;;4923312;29;20025;-76
2022/12/20 22:46:09;;;;;;;33.63;15.43;;;;;;;;;;4923338;29;20035;-84
2022/12/20 22:48:35;;;;;;;27.27;13.50;;;;;;;;;;4920072;29;20036;-85
2022/12/20 22:51:05;;;;;;;26.05;13.38;;;;;;;;;;4905028;29;20047;-86
2022/12/20 22:53:32;;;;;;;27.10;13.65;;;;;;;;;;4888476;29;20028;-85
2022/12/20 22:55:59;;;;;;;38.63;15.60;;;;;;;;;;4904791;29;20116;-85
2022/12/20 22:58:26;;;;;;;62.63;19.85;;;;;;;;;;4904356;29;20063;-86
2022/12/20 23:00:55;;;;;;;64.15;24.25;;;;;;;;;;4909141;29;20035;-87
2022/12/20 23:03:21;;;;;;;65.88;20.08;;;;;;;;;;4923837;29;20076;-86
2022/12/20 23:05:51;;;;;;;64.72;21.05;;;;;;;;;;4940630;29;20044;-87
2022/12/20 23:08:17;;;;;;;77.35;23.67;;;;;;;;;;4942891;29;20115;-86
2022/12/20 23:16:13;;;;;;;36.67;18.75;;;;;;;;;;4923077;29;20068;-85
2022/12/20 23:18:39;;;;;;;37.17;18.80;;;;;;;;;;4906870;29;20408;-87
2022/12/20 23:23:49;;;;;;;40.90;20.17;;;;;;;;;;4923699;29;20318;-86
2022/12/20 23:26:16;;;;;;;36.05;18.45;;;;;;;;;;4923285;29;20032;-86
2022/12/20 23:28:43;;;;;;;36.25;19.83;;;;;;;;;;4923041;29;20118;-86
2022/12/20 23:31:09;;;;;;;35.65;17.75;;;;;;;;;;4923383;29;20139;-86
2022/12/20 23:33:36;;;;;;;51.33;23.67;;;;;;;;;;4922893;29;20032;-86
2022/12/20 23:36:03;;;;;;;55.97;21.88;;;;;;;;;;4923291;29;20103;-86
2022/12/20 23:38:33;;;;;;;45.90;20.30;;;;;;;;;;4923018;29;20122;-86
2022/12/20 23:40:59;;;;;;;44.50;19.52;;;;;;;;;;4906417;29;20028;-86
2022/12/20 23:43:28;;;;;;;43.40;19.55;;;;;;;;;;4922862;29;20036;-86
2022/12/20 23:45:54;;;;;;;56.75;21.02;;;;;;;;;;4923224;29;20046;-86
2022/12/20 23:48:20;;;;;;;49.42;19.65;;;;;;;;;;4922653;29;20032;-86
2022/12/20 23:50:54;;;;;;;59.85;21.73;;;;;;;;;;4922504;29;20027;-85
2022/12/20 23:53:21;;;;;;;46.75;18.42;;;;;;;;;;4922963;29;20035;-85
2022/12/20 23:56:03;;;;;;;44.78;18.35;;;;;;;;;;4922581;29;20032;-85
2022/12/20 23:58:29;;;;;;;41.40;18.00;;;;;;;;;;4905827;29;20047;-85
